• Join FlightAware (Why Join?)
  • Login
  • US Flag 
12:35PM EDT


 

Airport Tracker/Info


-or-


 

Live Flight TrackerFlight Track Log ✈ AWE2690 ✈ 28-Oct-2013 ✈ KCLT - KSYR

Flight Track Log - Related Links

Times and Time Zones

All times are in EDT time to prevent confusion due to time zone crossing. See the AWE2690 flight status page for this flight to view local times or setup timezone preferences in your user account.

Time Position Orientation Groundspeed Altitude Reporting Facility
EDT Latitude Longitude Course Direction KTS MPH feet Rate Location/Type
01:27PM 35.2353 -80.9594 13° North 170 196 1,500  Level Atlanta Center
01:28PM 35.2883 -81.0006 328° Northwest 238 274 2,700 1,800 Climbing Atlanta Center
01:30PM 35.3777 -81.0184 52° Northeast  Level FlightAware Approximate
01:30PM 35.3842 -80.9894 North 290 334 6,100  Level Atlanta Center
01:31PM 35.5075 -80.9400 13° North  Level FlightAware Approximate
01:31PM 35.4586 -80.9664 14° North 281 323 8,800  Level Atlanta Center
01:32PM 35.6545 -80.8968 13° North  Level FlightAware Approximate
01:32PM 35.5414 -80.9428 13° North 281 323 10,600  Level Atlanta Center
01:33PM 35.6306 -80.9139 15° North 306 352 12,500 1,860 Climbing Atlanta Center
01:35PM 35.8275 -80.8628 12° North 356 410 16,300 1,860 Climbing Atlanta Center
01:36PM 35.9311 -80.8383 11° North 368 423 18,100 1,860 Climbing Atlanta Center
01:37PM 36.0325 -80.8139 11° North 373 429 20,100 1,680 Climbing Atlanta Center
01:38PM 36.1383 -80.7864 12° North 379 436 21,500 1,380 Climbing Atlanta Center
01:39PM 36.2439 -80.7614 11° North 384 442 22,900 720 Climbing Atlanta Center
01:40PM 36.3661 -80.7308 11° North 399 459 23,000  Climbing Atlanta Center
01:41PM 36.4864 -80.7000 12° North 416 479 23,000 900 Level Atlanta Center
01:42PM 36.6003 -80.6719 11° North 424 488 24,800 1,440 Climbing Atlanta Center
01:43PM 36.7161 -80.6436 11° North 424 488 25,900 1,380 Climbing Atlanta Center
01:45PM 36.9258 -80.5933 11° North 429 494 29,000 1,200 Climbing Washington Center
01:46PM 37.0436 -80.5672 10° North 424 488 29,600 660 Climbing Washington Center
01:47PM 37.1617 -80.5386 11° North 424 488 30,400 900 Climbing Washington Center
01:48PM 37.2778 -80.5094 11° North 424 488 31,500 1,200 Climbing Washington Center
01:49PM 37.4106 -80.4761 11° North 430 495 32,800 1,200 Climbing Washington Center
01:50PM 37.5264 -80.4494 10° North 430 495 33,900 1,020 Climbing Washington Center
01:51PM 37.6400 -80.4203 11° North 430 495 34,900 540 Climbing Washington Center
01:52PM 37.7561 -80.3908 11° North 420 483 35,000  Climbing Washington Center
01:53PM 37.8739 -80.3614 11° North 420 483 35,000  Level Washington Center
01:54PM 37.9900 -80.3319 11° North 438 504 35,000  Level Washington Center
01:55PM 38.1100 -80.3000 12° North 438 504 35,000  Level Washington Center
01:56PM 38.2281 -80.2703 11° North 438 504 35,000  Level Washington Center
01:57PM 38.3503 -80.2383 12° North 433 498 35,000  Level Washington Center
01:58PM 38.4850 -80.2044 11° North 433 498 35,000  Level Washington Center
02:00PM 38.7267 -80.1364 12° North 459 528 35,000  Level Cleveland Center
02:01PM 38.8758 -80.0958 12° North 459 528 35,000 240 Level Cleveland Center
02:02PM 38.9933 -80.0300 24° Northeast 460 529 35,500 480 Climbing Cleveland Center
02:03PM 39.1114 -79.9589 25° Northeast 470 541 36,000 480 Climbing Cleveland Center
02:04PM 39.2281 -79.8864 26° Northeast 466 536 36,500 480 Climbing Cleveland Center
02:05PM 39.3442 -79.8136 26° Northeast 471 542 37,000 240 Climbing Cleveland Center
02:06PM 39.4614 -79.7383 26° Northeast 472 543 37,000  Level Cleveland Center
02:07PM 39.6006 -79.6503 26° Northeast 472 543 37,000  Level Cleveland Center
02:08PM 39.7167 -79.5767 26° Northeast 469 540 37,000  Level Cleveland Center
02:09PM 39.8319 -79.5033 26° Northeast 468 539 37,000  Level Cleveland Center
02:10PM 39.9461 -79.4289 27° Northeast 464 534 37,000  Level Cleveland Center
02:11PM 40.0611 -79.3542 26° Northeast 466 536 37,000  Level Cleveland Center
02:12PM 40.1872 -79.2736 26° Northeast 465 535 37,000  Level Cleveland Center
02:13PM 40.3017 -79.1981 27° Northeast 464 534 37,000  Level Cleveland Center
02:14PM 40.4403 -79.1069 27° Northeast 465 535 37,000  Level Cleveland Center
02:15PM 40.5556 -79.0317 26° Northeast 465 535 37,000  Level Cleveland Center
02:16PM 40.6606 -78.9633 26° Northeast 469 540 37,000  Level Cleveland Center
02:17PM 40.7881 -78.8789 27° Northeast 468 539 37,000  Level Cleveland Center
02:18PM 40.9178 -78.7958 26° Northeast 473 544 37,000 -60 Level Cleveland Center
02:19PM 41.0333 -78.7156 28° Northeast 472 543 36,900 -360 Descending Cleveland Center
02:20PM 41.1533 -78.6381 26° Northeast 480 552 36,300 -780 Descending Cleveland Center
02:21PM 41.2717 -78.5581 27° Northeast 480 552 35,300 -1,020 Descending Cleveland Center
02:22PM 41.4075 -78.4656 27° Northeast 471 542 34,200 -660 Descending Cleveland Center
02:23PM 41.5236 -78.3867 27° Northeast 471 542 34,000 -780 Descending Cleveland Center
02:25PM 41.6422 -78.3064 27° Northeast 479 551 32,700 -1,380 Descending Cleveland Center
02:26PM 41.7614 -78.2247 27° Northeast 482 555 31,200 -1,620 Descending Cleveland Center
02:27PM 41.9031 -78.1278 27° Northeast 479 551 29,400 -1,200 Descending Cleveland Center
02:28PM 42.0158 -78.0514 27° Northeast 480 552 28,800 -780 Descending Cleveland Center
02:29PM 42.1258 -77.9511 34° Northeast 481 554 27,800 -1,260 Descending Cleveland Center
02:30PM 42.2206 -77.8217 45° Northeast 486 559 26,300 -1,380 Descending Cleveland Center
02:31PM 42.3322 -77.6681 45° Northeast 483 556 25,000 -660 Descending Cleveland Center
02:32PM 42.4233 -77.5431 45° Northeast 477 549 25,000  Level Cleveland Center
02:33PM 42.5158 -77.4153 45° Northeast 484 557 25,000 -1,020 Level Cleveland Center
02:34PM 42.6061 -77.2875 46° Northeast 479 551 23,000 -1,920 Descending Cleveland Center
02:35PM 42.6900 -77.1714 45° Northeast 442 509 21,000 -2,400 Descending Cleveland Center
02:36PM 42.7858 -77.0361 46° Northeast 419 482 18,100 -2,520 Descending Cleveland Center
02:37PM 42.8461 -76.9067 58° Northeast 412 474 15,900 -2,340 Descending Cleveland Center
02:38PM 42.9019 -76.7431 65° Northeast 400 460 12,900 -2,340 Descending Boston Center
02:39PM 42.9603 -76.6167 58° Northeast 368 423 10,600 -1,500 Descending Boston Center
02:40PM 43.0214 -76.5269 47° Northeast 326 375 9,800 -1,260 Descending Boston Center
02:41PM 43.0669 -76.4589 47° Northeast 284 327 8,500 -1,620 Descending Boston Center
02:41PM 43.0761 -76.4469 44° Northeast 293 337 8,200 -1,800 Descending Boston Center
02:42PM 43.1206 -76.3828 46° Northeast 282 325 6,700 -1,860 Descending Boston Center
02:42PM 43.1328 -76.3706 36° Northeast 286 329 6,300 -1,440 Descending Boston Center
02:43PM 43.1681 -76.3189 47° Northeast 275 316 5,400 -1,380 Descending Boston Center
02:43PM 43.1808 -76.2931 56° Northeast 273 314 4,900 -1,500 Descending Boston Center
02:44PM 43.2000 -76.2181 71° East 263 303 3,900 -1,440 Descending Boston Center
02:44PM 43.2028 -76.1953 80° East 271 312 3,500 -660 Descending Boston Center
02:45PM 43.2028 -76.1136 90° East 242 278 3,200 -480 Descending Boston Center
02:45PM 43.2056 -76.0992 75° East 260 299 3,000 -840 Descending Boston Center
02:46PM 43.1692 -76.0475 134° Southeast 213 245 2,400 -960 Descending Boston Center
02:46PM 43.1561 -76.0278 132° Southeast 230 265 2,100 -720 Descending Boston Center
02:47PM 43.1264 -76.0225 173° South 172 198 1,700 -780 Descending Boston Center
02:47PM 43.1175 -76.0389 233° Southwest 203 234 1,300 -900 Descending Boston Center
02:48PM 43.1089 -76.0753 252° West 138 159 800 -780 Descending Boston Center
02:48PM 43.1081 -76.0900 266° West 162 186 500 -720 Descending Boston Center